Tuesday, December 18, 2018, 4:17 PM EST
Back to Local

KAUG, Augusta State Airport

Location: Augusta, ME, United States Lat: 44.317
Local Time: 4:17 PM EST (21:17 GMT) Lon: -69.8
Time Zone: US/Eastern Elev: 351 ft

Show me the last for .
Show Decoded

2018-12-18 15:53 METAR KAUG 182053Z AUTO 32016G23KT 10SM CLR M06/M13 A2982 RMK AO2 PK WND
                 32027/2012 SLP102 T10561128 53028 =
2018-12-18 14:53 METAR KAUG 181953Z AUTO 32017G26KT 10SM CLR M05/M12 A2978 RMK AO2 PK WND
                 31033/1913 SLP091 T10501122 =
2018-12-18 13:53 METAR KAUG 181853Z AUTO 31015G29KT 10SM CLR M04/M12 A2975 RMK AO2 PK WND
                 32030/1821 SLP081 T10441122 =
2018-12-18 12:53 METAR KAUG 181753Z AUTO 32019G31KT 10SM CLR M04/M13 A2973 RMK AO2 PK WND
                 30031/1749 SLP073 T10441128 11044 21067 53009 =
2018-12-18 11:53 METAR KAUG 181653Z AUTO 31016G26KT 10SM CLR M04/M12 A2971 RMK AO2 PK WND
                 30027/1610 SLP067 T10441122 =
2018-12-18 10:53 METAR KAUG 181553Z AUTO 30016G22KT 10SM CLR M05/M13 A2971 RMK AO2 PK WND
                 32028/1455 SLP067 T10501128 =
2018-12-18 09:53 METAR KAUG 181453Z AUTO 31016G28KT 10SM CLR M06/M12 A2971 RMK AO2 PK WND
                 33030/1436 SLP064 T10561122 51036 =
2018-12-18 08:53 METAR KAUG 181353Z AUTO 31015G26KT 10SM CLR M06/M13 A2968 RMK AO2 PK WND
                 32028/1318 SLP054 T10611128 =
2018-12-18 07:53 METAR KAUG 181253Z AUTO 30014G23KT 10SM OVC070 M07/M13 A2963 RMK AO2 SLP039
                 T10671128 =
2018-12-18 06:53 METAR KAUG 181153Z AUTO 30012G19KT 10SM OVC060 M07/M13 A2960 RMK AO2 PK WND
                 30027/1108 SLP027 70012 T10671128 11011 21067 51030 =
2018-12-18 05:53 METAR KAUG 181053Z AUTO 31016G24KT 10SM OVC048 M07/M12 A2957 RMK AO2 SLP018
                 T10671117 =
2018-12-18 04:53 METAR KAUG 180953Z AUTO 31012G20KT 10SM OVC048 M06/M12 A2953 RMK AO2 PK WND
                 29026/0935 SLP006 T10611117 =
2018-12-18 03:53 METAR KAUG 180853Z AUTO 30011G22KT 10SM OVC065 M06/M11 A2951 RMK AO2 PK WND
                 30028/0808 SLP997 T10611111 53032 =
2018-12-18 02:53 METAR KAUG 180753Z AUTO 30012G24KT 10SM OVC065 M04/M11 A2947 RMK AO2 SLP985
                 T10441106 =
2018-12-18 01:53 METAR KAUG 180653Z AUTO 30014G22KT 10SM BKN055 OVC110 M03/M08 A2944 RMK AO2
                 SLP975 T10281078 =
2018-12-18 00:53 METAR KAUG 180553Z AUTO 30011G21KT 10SM OVC065 M01/M06 A2941 RMK AO2 SLP963
                 T10111056 10006 21011 53001 =
2018-12-17 23:53 METAR KAUG 180453Z AUTO 31008G16KT 10SM FEW043 OVC055 00/M04 A2940 RMK AO2
                 SLP959 T00001039 400061011 =
2018-12-17 22:53 METAR KAUG 180353Z AUTO 30009KT 10SM OVC060 01/M03 A2940 RMK AO2 SLP959
                 T00061033 =
2018-12-17 21:53 METAR KAUG 180253Z AUTO 30007G18KT 10SM OVC055 01/M03 A2941 RMK AO2 SLP962
                 T00061033 56009 =
2018-12-17 20:53 METAR KAUG 180153Z AUTO 29008KT 10SM OVC043 01/M02 A2941 RMK AO2 SLP964
                 T00061022 =
2018-12-17 19:53 METAR KAUG 180053Z AUTO 29007KT 10SM OVC040 01/M01 A2942 RMK AO2 SLP967
                 T00061011 =
2018-12-17 18:53 METAR KAUG 172353Z AUTO 30005KT 10SM BKN037 OVC050 01/00 A2944 RMK AO2 SLP972
                 60002 T00060000 10006 20000 56007 =
2018-12-17 17:53 METAR KAUG 172253Z AUTO 29003KT 7SM FEW040 OVC046 00/00 A2944 RMK AO2 SLP974
                 T00000000 =
2018-12-17 16:53 METAR KAUG 172153Z AUTO 32004KT 5SM BR FEW003 OVC041 00/00 A2945 RMK AO2
                 RAB42E51UPB51E53 SLP976 P0000 T00000000 =
2018-12-17 16:32 METAR KAUG 172132Z AUTO 32006KT 6SM BR SCT005 SCT029 OVC037 01/00 A2945 RMK AO2
                 T00060000 =

Support USWX by starting your Amazon purchase here.